Time;durP1;ratioP1;P1;durP2;ratioP2;P2;SDS_P1;SDS_P2;PMS_P1;PMS_P2;Temp;Humidity;BMP_temperature;BMP_pressure;BME280_temperature;BME280_humidity;BME280_pressure;Samples;Min_cycle;Max_cycle;Signal;HPM_P1;HPM_P2
2023/07/30 00:00:37;;;;;;;0.60;0.60;;;;;;;25.14;56.64;97048.38;5052371;28;20287;-27
2023/07/30 00:03:03;;;;;;;0.60;0.60;;;;;;;25.13;57.02;97041.53;5051797;28;20296;-27
2023/07/30 00:05:30;;;;;;;0.67;0.67;;;;;;;25.13;56.83;97041.53;5052635;28;20216;-28
2023/07/30 00:07:56;;;;;;;0.57;0.57;;;;;;;25.11;57.00;97034.66;5052576;28;20745;-27
2023/07/30 00:10:23;;;;;;;0.60;0.60;;;;;;;25.14;56.91;97037.25;5052150;28;20221;-28
2023/07/30 00:12:50;;;;;;;0.70;0.70;;;;;;;25.13;56.65;97038.09;5052077;28;20233;-27
2023/07/30 00:15:16;;;;;;;0.60;0.60;;;;;;;25.14;56.93;97040.66;5052554;28;20254;-27
2023/07/30 00:17:43;;;;;;;0.70;0.70;;;;;;;25.13;56.85;97033.81;5052351;28;20221;-27
2023/07/30 00:20:10;;;;;;;0.70;0.70;;;;;;;25.14;56.83;97038.09;5052615;28;20217;-28
2023/07/30 00:22:36;;;;;;;0.60;0.60;;;;;;;25.13;56.65;97038.94;5052074;28;20621;-28
2023/07/30 00:25:03;;;;;;;0.60;0.60;;;;;;;25.13;57.11;97032.94;5052261;28;20196;-27
2023/07/30 00:27:30;;;;;;;0.60;0.60;;;;;;;25.14;56.62;97047.53;5049760;28;20276;-28
2023/07/30 00:29:56;;;;;;;0.70;0.70;;;;;;;25.14;56.62;97038.09;5052226;28;20213;-27
2023/07/30 00:32:23;;;;;;;0.60;0.60;;;;;;;25.14;57.05;97038.09;5052186;28;20233;-27
2023/07/30 00:34:49;;;;;;;0.57;0.57;;;;;;;25.13;57.01;97037.25;5051655;28;20197;-28
2023/07/30 00:37:16;;;;;;;0.60;0.60;;;;;;;25.12;57.07;97036.38;5052262;28;20204;-29
2023/07/30 00:39:43;;;;;;;0.70;0.70;;;;;;;25.14;56.80;97040.66;5051217;28;20758;-27
2023/07/30 00:42:09;;;;;;;0.50;0.50;;;;;;;25.10;56.78;97041.50;5051807;28;20291;-27
2023/07/30 00:44:36;;;;;;;0.60;0.60;;;;;;;25.14;56.95;97045.81;5051952;28;20248;-27
2023/07/30 00:47:03;;;;;;;0.60;0.60;;;;;;;25.14;56.70;97047.53;5051874;28;20205;-32
2023/07/30 00:49:29;;;;;;;0.60;0.60;;;;;;;25.13;56.79;97046.66;5050859;28;20566;-27
2023/07/30 00:51:56;;;;;;;0.60;0.60;;;;;;;25.11;56.94;97068.94;5051503;28;20725;-27
2023/07/30 00:54:23;;;;;;;0.60;0.60;;;;;;;25.13;56.44;97068.94;5050810;28;20205;-27
2023/07/30 00:56:51;;;;;;;0.63;0.63;;;;;;;25.13;56.64;97057.81;5051478;28;20626;-27
2023/07/30 00:59:21;;;;;;;0.60;0.60;;;;;;;25.13;56.69;97050.09;5051329;28;20663;-27
2023/07/30 01:01:48;;;;;;;0.60;0.60;;;;;;;25.13;56.57;97048.38;5041366;28;20289;-27
2023/07/30 01:04:15;;;;;;;0.60;0.60;;;;;;;25.14;56.45;97044.97;5050017;28;20255;-27
2023/07/30 01:06:42;;;;;;;0.60;0.60;;;;;;;25.14;56.94;97039.81;5051061;28;20197;-27
2023/07/30 01:09:09;;;;;;;0.60;0.60;;;;;;;25.13;56.53;97038.94;5050341;28;20283;-27
2023/07/30 01:11:36;;;;;;;0.60;0.60;;;;;;;25.13;56.87;97043.22;5050953;28;20683;-27
2023/07/30 01:14:05;;;;;;;0.60;0.60;;;;;;;25.13;56.56;97044.09;5042109;28;20193;-27
2023/07/30 01:16:31;;;;;;;0.60;0.60;;;;;;;25.13;56.79;97044.09;5049923;28;20572;-27
2023/07/30 01:18:59;;;;;;;0.60;0.60;;;;;;;25.10;56.76;97045.78;5051294;28;20227;-28
2023/07/30 01:21:25;;;;;;;0.60;0.60;;;;;;;25.09;56.63;97037.22;5050254;28;20201;-27
2023/07/30 01:23:52;;;;;;;0.70;0.70;;;;;;;25.13;56.90;97038.94;5051247;28;20200;-28
2023/07/30 01:26:20;;;;;;;0.60;0.60;;;;;;;25.13;56.59;97039.81;5051797;28;20228;-28
2023/07/30 01:28:48;;;;;;;0.67;0.67;;;;;;;25.13;56.60;97050.09;5031412;28;20194;-27
2023/07/30 01:31:15;;;;;;;0.60;0.60;;;;;;;25.13;56.50;97051.81;5050445;28;20208;-27
2023/07/30 01:33:43;;;;;;;0.60;0.60;;;;;;;25.12;56.58;97062.09;5051544;28;20200;-27
2023/07/30 01:36:10;;;;;;;0.60;0.60;;;;;;;25.14;56.99;97068.94;5050508;28;20250;-27
2023/07/30 01:38:37;;;;;;;0.70;0.70;;;;;;;25.13;56.59;97066.38;5033391;28;20228;-28
2023/07/30 01:41:04;;;;;;;0.60;0.60;;;;;;;25.09;57.02;97070.66;5024639;28;20200;-27
2023/07/30 01:44:01;;;;;;;0.70;0.70;;;;;;;25.14;56.57;97070.69;5049801;28;20303;-27
2023/07/30 01:46:28;;;;;;;0.60;0.60;;;;;;;25.13;56.71;97091.25;5051192;28;20236;-27
2023/07/30 01:48:55;;;;;;;0.67;0.67;;;;;;;25.13;56.88;97118.66;5051088;28;20300;-27
2023/07/30 01:51:21;;;;;;;0.50;0.50;;;;;;;25.11;56.53;97122.94;5051495;28;20201;-27
2023/07/30 01:53:48;;;;;;;0.70;0.70;;;;;;;25.13;56.72;97103.25;5050816;28;20258;-27
2023/07/30 01:56:14;;;;;;;0.80;0.80;;;;;;;25.13;56.72;97091.25;5050781;28;20254;-27
2023/07/30 01:58:41;;;;;;;0.60;0.60;;;;;;;25.14;56.48;97075.81;5050468;28;20255;-28
2023/07/30 02:01:07;;;;;;;0.70;0.70;;;;;;;25.13;56.48;97070.66;5051218;28;20745;-27
2023/07/30 02:03:34;;;;;;;0.60;0.60;;;;;;;25.13;56.70;97071.50;5051102;28;20201;-27
2023/07/30 02:06:01;;;;;;;0.60;0.60;;;;;;;25.13;57.02;97061.22;5050695;28;20323;-28
2023/07/30 02:08:27;;;;;;;0.70;0.70;;;;;;;25.13;56.94;97063.78;5051091;28;20208;-27
2023/07/30 02:10:56;;;;;;;0.70;0.70;;;;;;;25.14;57.05;97068.13;5050720;28;20252;-27
2023/07/30 02:13:23;;;;;;;0.63;0.63;;;;;;;25.13;56.77;97059.53;5050721;28;20247;-27
2023/07/30 02:15:50;;;;;;;0.60;0.60;;;;;;;25.13;56.63;97064.66;5051055;28;20287;-27
2023/07/30 02:18:16;;;;;;;0.60;0.60;;;;;;;25.13;56.73;97076.66;5050733;28;20311;-27
2023/07/30 02:20:43;;;;;;;0.60;0.60;;;;;;;25.13;56.95;97091.25;5050878;28;20249;-27
2023/07/30 02:23:10;;;;;;;0.60;0.60;;;;;;;25.13;56.67;97086.09;5051193;28;20258;-27
2023/07/30 02:25:37;;;;;;;0.60;0.60;;;;;;;25.13;56.60;97076.66;5049686;28;20256;-27
2023/07/30 02:28:04;;;;;;;0.60;0.60;;;;;;;25.13;56.87;97069.81;5052564;28;20694;-27
2023/07/30 02:30:30;;;;;;;0.60;0.60;;;;;;;25.13;56.76;97063.78;5054497;28;20643;-34
2023/07/30 02:32:57;;;;;;;0.70;0.70;;;;;;;25.11;56.72;97053.50;5036456;28;20250;-27
2023/07/30 02:35:24;;;;;;;0.70;0.70;;;;;;;25.13;56.95;97059.53;5054540;28;20288;-27
2023/07/30 02:37:50;;;;;;;0.60;0.60;;;;;;;25.13;56.56;97060.38;5054469;28;20240;-27
2023/07/30 02:40:17;;;;;;;0.70;0.70;;;;;;;25.11;57.05;97052.66;5052446;28;20221;-27
2023/07/30 02:42:44;;;;;;;0.70;0.70;;;;;;;25.13;56.67;97055.25;5054492;28;20262;-27
2023/07/30 02:45:10;;;;;;;0.70;0.67;;;;;;;25.12;56.80;97054.38;5054262;28;20204;-27
2023/07/30 02:47:37;;;;;;;0.70;0.70;;;;;;;25.11;56.96;97050.94;5054147;28;20201;-27
2023/07/30 02:50:04;;;;;;;0.50;0.50;;;;;;;25.13;56.71;97062.97;5053771;28;20216;-27
2023/07/30 02:52:31;;;;;;;0.70;0.70;;;;;;;25.11;56.96;97060.38;5053913;28;20251;-28
2023/07/30 02:54:57;;;;;;;0.60;0.60;;;;;;;25.08;56.99;97066.34;5053949;28;20254;-27
2023/07/30 02:57:24;;;;;;;0.70;0.70;;;;;;;25.12;56.93;97064.66;5053969;28;20197;-27
2023/07/30 02:59:50;;;;;;;0.70;0.70;;;;;;;25.12;56.76;97067.22;5053657;28;20296;-27
2023/07/30 03:02:17;;;;;;;0.60;0.60;;;;;;;25.13;56.60;97070.66;5053707;28;20232;-27
2023/07/30 03:04:43;;;;;;;0.60;0.60;;;;;;;25.12;57.06;97074.94;5053831;28;20201;-27
2023/07/30 03:07:10;;;;;;;0.60;0.60;;;;;;;25.13;57.04;97084.38;5053471;28;20760;-27
2023/07/30 03:09:37;;;;;;;0.60;0.60;;;;;;;25.13;56.80;97079.22;5054154;28;20266;-27
2023/07/30 03:12:03;;;;;;;0.70;0.70;;;;;;;25.13;56.90;97078.38;5053518;28;20284;-27
2023/07/30 03:14:30;;;;;;;0.60;0.60;;;;;;;25.13;56.62;97081.81;5053859;28;20271;-27
2023/07/30 03:16:57;;;;;;;0.60;0.60;;;;;;;25.11;56.73;97079.22;5053567;28;20201;-27
2023/07/30 03:19:23;;;;;;;0.60;0.60;;;;;;;25.12;57.00;97074.94;5053517;28;20271;-27
2023/07/30 03:21:50;;;;;;;0.60;0.60;;;;;;;25.12;57.09;97069.81;5053141;28;20204;-27
2023/07/30 03:24:16;;;;;;;0.70;0.70;;;;;;;25.13;56.74;97070.66;5053838;28;20483;-27
2023/07/30 03:26:43;;;;;;;0.60;0.60;;;;;;;25.09;56.79;97064.63;5053772;28;20349;-27
2023/07/30 03:29:09;;;;;;;0.60;0.60;;;;;;;25.13;57.14;97074.97;5053437;28;20283;-27
2023/07/30 03:31:36;;;;;;;0.60;0.60;;;;;;;25.07;56.84;97064.63;5053100;28;20212;-27
2023/07/30 03:34:03;;;;;;;0.50;0.50;;;;;;;25.13;56.74;97070.66;5053206;28;20200;-27
2023/07/30 03:36:30;;;;;;;0.70;0.70;;;;;;;25.11;56.74;97070.66;5053374;28;20208;-27
2023/07/30 03:38:56;;;;;;;0.60;0.60;;;;;;;25.11;56.60;97070.66;5052042;28;20221;-27
2023/07/30 03:41:23;;;;;;;0.67;0.67;;;;;;;25.08;56.94;97073.22;5053527;28;20621;-27
2023/07/30 03:43:50;;;;;;;0.60;0.60;;;;;;;25.11;57.06;97074.06;5053163;28;20205;-27
2023/07/30 03:46:16;;;;;;;0.60;0.60;;;;;;;25.08;56.70;97065.50;5046612;28;20197;-28
2023/07/30 03:48:43;;;;;;;0.60;0.60;;;;;;;25.13;56.57;97071.50;5048395;28;20197;-27
2023/07/30 03:51:10;;;;;;;0.60;0.60;;;;;;;25.08;56.71;97061.19;5052728;28;20218;-27
2023/07/30 03:53:36;;;;;;;0.60;0.60;;;;;;;25.12;57.00;97074.94;5051726;28;20300;-27
2023/07/30 03:56:03;;;;;;;0.70;0.70;;;;;;;25.13;56.64;97083.53;5053162;28;20200;-27
2023/07/30 03:58:30;;;;;;;0.60;0.60;;;;;;;25.12;57.12;97077.50;5052882;28;20228;-27
2023/07/30 04:00:57;;;;;;;0.60;0.60;;;;;;;25.13;57.16;97075.81;5051447;28;20220;-27
2023/07/30 04:03:23;;;;;;;0.70;0.70;;;;;;;25.13;56.96;97087.81;5051641;28;20192;-27
2023/07/30 04:05:50;;;;;;;0.70;0.70;;;;;;;25.13;56.96;97079.22;5051565;28;20243;-27
2023/07/30 04:08:17;;;;;;;0.60;0.60;;;;;;;25.09;56.63;97075.78;5051681;28;20193;-27
2023/07/30 04:10:44;;;;;;;0.70;0.70;;;;;;;25.12;57.09;97082.66;5051583;28;20299;-27
2023/07/30 04:13:10;;;;;;;0.70;0.70;;;;;;;25.13;56.62;97092.09;5051475;28;20209;-27
2023/07/30 04:15:37;;;;;;;0.60;0.60;;;;;;;25.09;56.66;97078.38;5051733;28;20232;-27
2023/07/30 04:18:03;;;;;;;0.60;0.60;;;;;;;25.12;56.74;97082.66;5051306;28;20200;-31
2023/07/30 04:20:30;;;;;;;0.50;0.50;;;;;;;25.13;57.12;97086.94;5051512;28;20307;-27
2023/07/30 04:22:57;;;;;;;0.60;0.60;;;;;;;25.13;56.95;97095.53;5051523;28;20197;-27
2023/07/30 04:25:23;;;;;;;0.57;0.57;;;;;;;25.13;57.13;97104.94;5051504;28;20205;-27
2023/07/30 04:27:50;;;;;;;0.60;0.60;;;;;;;25.14;56.72;97114.41;5051676;28;20255;-27
2023/07/30 04:30:16;;;;;;;0.67;0.67;;;;;;;25.13;56.84;97116.97;5051235;28;20299;-27
2023/07/30 04:32:43;;;;;;;0.50;0.50;;;;;;;25.11;57.08;97117.78;5051018;28;20247;-27
2023/07/30 04:35:10;;;;;;;0.60;0.60;;;;;;;25.11;56.56;97122.94;5051727;28;20209;-27
2023/07/30 04:37:36;;;;;;;0.60;0.60;;;;;;;25.10;57.05;97118.66;5051397;28;20201;-27
2023/07/30 04:40:03;;;;;;;0.60;0.60;;;;;;;25.10;56.93;97118.66;5051072;28;20274;-27
2023/07/30 04:42:30;;;;;;;0.63;0.63;;;;;;;25.11;56.56;97122.94;5050878;28;20201;-27
2023/07/30 04:44:56;;;;;;;0.60;0.60;;;;;;;25.11;56.76;97127.22;5051262;28;20621;-27
2023/07/30 04:47:23;;;;;;;0.70;0.70;;;;;;;25.13;56.67;97119.53;5050985;28;20240;-28
2023/07/30 04:49:49;;;;;;;0.60;0.60;;;;;;;25.13;56.97;97119.53;5050939;28;20220;-27
2023/07/30 04:52:16;;;;;;;0.80;0.73;;;;;;;25.12;56.63;97121.22;5051078;28;20231;-28
2023/07/30 04:54:42;;;;;;;0.60;0.60;;;;;;;25.13;56.79;97119.53;5051416;28;20196;-32
2023/07/30 04:57:09;;;;;;;0.70;0.70;;;;;;;25.13;56.89;97122.94;5050731;28;20290;-28
2023/07/30 04:59:36;;;;;;;0.70;0.70;;;;;;;25.13;57.00;97134.09;5033218;22;1116956;-29
2023/07/30 05:02:02;;;;;;;0.63;0.63;;;;;;;25.13;56.99;97132.38;5091165;28;20203;-27
2023/07/30 05:04:29;;;;;;;0.60;0.60;;;;;;;25.13;56.64;97137.53;5091333;28;20203;-29
2023/07/30 05:06:56;;;;;;;0.70;0.70;;;;;;;25.11;56.86;97138.38;5092014;28;20612;-28
2023/07/30 05:09:22;;;;;;;0.60;0.60;;;;;;;25.14;56.62;97145.25;5089711;28;20196;-28
2023/07/30 05:11:49;;;;;;;0.60;0.60;;;;;;;25.12;56.76;97141.81;5071244;28;20201;-27
2023/07/30 05:14:15;;;;;;;0.70;0.70;;;;;;;25.13;56.76;97145.25;5070606;28;20263;-28
2023/07/30 05:16:42;;;;;;;0.70;0.70;;;;;;;25.13;56.77;97142.69;5071282;28;20666;-27
2023/07/30 05:19:09;;;;;;;0.70;0.70;;;;;;;25.12;56.56;97146.94;5070975;28;20227;-28
2023/07/30 05:21:35;;;;;;;0.70;0.70;;;;;;;25.12;56.63;97146.94;5071428;28;20223;-28
2023/07/30 05:24:02;;;;;;;0.70;0.70;;;;;;;25.11;56.75;97151.22;5071100;28;20200;-28
2023/07/30 05:26:29;;;;;;;0.60;0.60;;;;;;;25.12;56.66;97149.53;5071149;28;20228;-27
2023/07/30 05:28:55;;;;;;;0.70;0.70;;;;;;;25.12;56.50;97159.81;5071417;28;20287;-27
2023/07/30 05:31:22;;;;;;;0.63;0.63;;;;;;;25.11;57.12;97168.38;5070989;28;20253;-28
2023/07/30 05:33:49;;;;;;;0.60;0.60;;;;;;;25.11;57.00;97174.38;5071219;28;20204;-27
2023/07/30 05:36:16;;;;;;;0.70;0.70;;;;;;;25.13;56.75;97176.09;5070921;28;20212;-28
2023/07/30 05:38:42;;;;;;;0.60;0.60;;;;;;;25.13;56.60;97176.09;5071136;28;20196;-27
2023/07/30 05:41:09;;;;;;;0.60;0.60;;;;;;;25.13;56.79;97176.09;5070668;28;20224;-29
2023/07/30 05:43:35;;;;;;;0.70;0.70;;;;;;;25.08;56.96;97171.75;5071174;28;20568;-27
2023/07/30 05:46:02;;;;;;;0.50;0.50;;;;;;;25.12;57.04;97180.38;5070899;28;20204;-28
2023/07/30 05:48:28;;;;;;;0.60;0.60;;;;;;;25.13;56.95;97181.25;5068757;28;20231;-37
2023/07/30 05:50:55;;;;;;;0.60;0.60;;;;;;;25.12;56.97;97185.53;5071041;28;20663;-28
2023/07/30 05:53:22;;;;;;;0.60;0.60;;;;;;;25.13;57.05;97183.81;5070511;28;20686;-27
2023/07/30 05:55:48;;;;;;;0.70;0.70;;;;;;;25.12;56.97;97180.38;5070967;28;20208;-27
2023/07/30 05:58:15;;;;;;;0.60;0.60;;;;;;;25.13;56.74;97191.53;5070733;28;20512;-27
2023/07/30 06:00:42;;;;;;;0.60;0.60;;;;;;;25.13;56.92;97188.97;5070558;28;20220;-28
2023/07/30 06:03:09;;;;;;;0.60;0.60;;;;;;;25.12;56.98;97180.38;5074204;28;20197;-28
2023/07/30 06:05:42;;;;;;;0.60;0.60;;;;;;;25.12;56.60;97182.94;5074718;28;20203;-28
2023/07/30 06:08:09;;;;;;;0.60;0.60;;;;;;;25.11;56.65;97187.22;5074230;28;20627;-27
2023/07/30 06:10:36;;;;;;;0.60;0.60;;;;;;;25.12;56.69;97185.53;5074523;28;20220;-33
2023/07/30 06:13:04;;;;;;;0.60;0.60;;;;;;;25.11;56.86;97191.53;5074438;28;20201;-27
2023/07/30 06:15:31;;;;;;;0.60;0.60;;;;;;;25.13;56.88;97189.81;5067050;28;20706;-30
2023/07/30 06:17:57;;;;;;;0.70;0.70;;;;;;;25.12;56.71;97190.66;5074270;28;20254;-27
2023/07/30 06:20:24;;;;;;;0.60;0.60;;;;;;;25.12;56.77;97195.81;5073917;28;20725;-27
2023/07/30 06:22:50;;;;;;;0.70;0.70;;;;;;;25.12;56.89;97185.53;5073961;28;20203;-30
2023/07/30 06:25:17;;;;;;;2.23;0.70;;;;;;;25.12;56.78;97195.81;5074021;28;20247;-27
2023/07/30 06:27:43;;;;;;;0.70;0.70;;;;;;;25.11;56.67;97187.22;5074098;28;20697;-28
2023/07/30 06:30:10;;;;;;;0.70;0.70;;;;;;;25.13;56.79;97183.81;5073740;28;20256;-27
2023/07/30 06:32:37;;;;;;;0.60;0.60;;;;;;;25.11;57.07;97182.06;5074006;28;20236;-29
2023/07/30 06:35:04;;;;;;;0.60;0.60;;;;;;;25.11;56.56;97187.22;5072636;28;20227;-27
2023/07/30 06:37:31;;;;;;;0.60;0.60;;;;;;;25.11;56.78;97189.78;5074116;28;20204;-28
2023/07/30 06:39:57;;;;;;;0.60;0.60;;;;;;;25.11;56.72;97192.38;5074040;28;20224;-28
2023/07/30 06:42:24;;;;;;;0.60;0.60;;;;;;;25.10;56.99;97190.66;5073899;28;20236;-28
2023/07/30 06:44:51;;;;;;;0.60;0.60;;;;;;;25.12;56.93;97190.66;5072542;28;20744;-29
2023/07/30 06:47:17;;;;;;;0.60;0.60;;;;;;;25.06;56.68;97188.91;5073746;28;20282;-28
2023/07/30 06:49:44;;;;;;;0.70;0.70;;;;;;;25.12;56.80;97195.81;5073592;28;20223;-27
2023/07/30 06:52:10;;;;;;;0.70;0.70;;;;;;;25.13;57.07;97199.25;5073315;28;20208;-27
2023/07/30 06:54:37;;;;;;;0.60;0.60;;;;;;;25.13;56.91;97201.81;5073889;28;20693;-28
2023/07/30 06:57:05;;;;;;;0.80;0.70;;;;;;;25.12;56.69;97198.38;5073691;28;20580;-27
2023/07/30 06:59:33;;;;;;;0.70;0.70;;;;;;;25.13;56.67;97201.81;5073060;28;20224;-29
2023/07/30 07:01:59;;;;;;;0.60;0.60;;;;;;;25.12;56.57;97206.09;5073634;28;20231;-27
2023/07/30 07:04:26;;;;;;;0.60;0.60;;;;;;;25.11;56.67;97207.78;5073108;28;20654;-27
2023/07/30 07:06:52;;;;;;;0.60;0.60;;;;;;;25.13;57.13;97207.81;5073627;28;20205;-28
2023/07/30 07:09:19;;;;;;;0.60;0.60;;;;;;;25.13;56.65;97201.81;5073120;28;20208;-27
2023/07/30 07:11:46;;;;;;;0.63;0.63;;;;;;;25.10;56.98;97194.91;5073474;28;20250;-27
2023/07/30 07:14:12;;;;;;;0.70;0.70;;;;;;;25.11;56.84;97196.66;5073151;28;20232;-28
2023/07/30 07:16:39;;;;;;;0.60;0.60;;;;;;;25.11;56.81;97199.25;5073343;28;20243;-29
2023/07/30 07:19:06;;;;;;;0.70;0.70;;;;;;;25.11;56.86;97202.66;5073123;28;20204;-30
2023/07/30 07:21:32;;;;;;;0.70;0.70;;;;;;;25.11;56.97;97202.66;5073104;28;20281;-27
2023/07/30 07:23:59;;;;;;;0.60;0.60;;;;;;;25.13;56.83;97209.53;5073398;28;20592;-27
2023/07/30 07:26:25;;;;;;;0.70;0.70;;;;;;;25.12;56.68;97211.25;5072927;28;20204;-28
2023/07/30 07:28:52;;;;;;;0.60;0.60;;;;;;;25.11;56.92;97215.50;5072936;28;20645;-29
2023/07/30 07:31:18;;;;;;;0.70;0.70;;;;;;;25.12;56.81;97213.81;5072597;28;20638;-28
2023/07/30 07:33:45;;;;;;;0.50;0.50;;;;;;;25.12;56.96;97213.81;5073145;28;20204;-27
2023/07/30 07:36:14;;;;;;;0.67;0.67;;;;;;;25.13;56.64;97216.41;5072804;28;20207;-29
2023/07/30 07:38:40;;;;;;;0.60;0.60;;;;;;;25.13;56.77;97206.97;5065130;28;20208;-28
2023/07/30 07:41:07;;;;;;;0.60;0.60;;;;;;;25.11;56.63;97207.78;5072644;28;20220;-27
2023/07/30 07:43:33;;;;;;;0.60;0.60;;;;;;;25.11;56.61;97212.94;5072319;28;20204;-27
2023/07/30 07:46:00;;;;;;;0.60;0.60;;;;;;;25.12;57.08;97213.81;5072618;28;20196;-29
2023/07/30 07:48:27;;;;;;;0.70;0.70;;;;;;;25.13;56.83;97214.69;5072525;28;20207;-28
2023/07/30 07:50:53;;;;;;;0.60;0.60;;;;;;;25.11;56.81;97212.94;5072761;28;20591;-27
2023/07/30 07:53:20;;;;;;;0.60;0.60;;;;;;;25.11;56.81;97202.66;5072077;28;20721;-27
2023/07/30 07:55:46;;;;;;;0.70;0.70;;;;;;;25.11;56.65;97201.81;5067942;28;20205;-28
2023/07/30 07:58:13;;;;;;;0.67;0.67;;;;;;;25.11;56.69;97202.66;5068807;28;20212;-29
2023/07/30 08:00:39;;;;;;;0.60;0.60;;;;;;;25.11;56.73;97199.25;5068315;28;20266;-28
2023/07/30 08:03:06;;;;;;;0.60;0.60;;;;;;;25.12;56.73;97208.66;5072221;28;20290;-28
2023/07/30 08:05:33;;;;;;;0.67;0.67;;;;;;;25.13;56.93;97199.25;5072294;28;20227;-27
2023/07/30 08:07:59;;;;;;;0.70;0.70;;;;;;;25.12;56.71;97203.53;5072333;28;20236;-28
2023/07/30 08:10:26;;;;;;;0.50;0.50;;;;;;;25.13;56.68;97212.94;5072042;28;20224;-28
2023/07/30 08:12:52;;;;;;;0.60;0.60;;;;;;;25.13;56.66;97204.41;5071934;28;20239;-28
2023/07/30 08:15:19;;;;;;;0.60;0.60;;;;;;;24.73;56.67;97139.72;5071964;28;20200;-27
2023/07/30 08:17:46;;;;;;;0.60;0.60;;;;;;;25.11;57.04;97200.06;5071918;28;20204;-28
2023/07/30 08:20:13;;;;;;;0.60;0.60;;;;;;;25.11;57.09;97212.09;5071960;28;20643;-27
2023/07/30 08:22:39;;;;;;;0.70;0.70;;;;;;;25.11;56.72;97207.78;5071792;28;20231;-31
2023/07/30 08:25:06;;;;;;;0.70;0.70;;;;;;;25.09;57.01;97199.22;5071515;28;20196;-29
2023/07/30 08:27:33;;;;;;;0.60;0.60;;;;;;;25.09;56.85;97204.38;5071553;28;20200;-31
2023/07/30 08:30:00;;;;;;;0.57;0.57;;;;;;;25.09;56.65;97201.78;5071708;28;20231;-27
2023/07/30 08:32:26;;;;;;;0.70;0.70;;;;;;;25.09;57.06;97204.38;5071697;28;20291;-33
2023/07/30 08:34:53;;;;;;;0.60;0.60;;;;;;;25.11;56.61;97205.22;5071815;28;20291;-27
2023/07/30 08:37:19;;;;;;;0.60;0.60;;;;;;;25.11;56.80;97205.22;5071694;28;20204;-27
2023/07/30 08:39:46;;;;;;;0.70;0.70;;;;;;;25.12;56.68;97195.81;5071381;28;20508;-27
2023/07/30 08:42:15;;;;;;;0.60;0.60;;;;;;;25.08;57.04;97192.34;5071541;28;20689;-27
2023/07/30 08:44:42;;;;;;;0.70;0.70;;;;;;;25.10;56.67;97193.22;5071287;28;20748;-27
2023/07/30 08:47:09;;;;;;;0.60;0.60;;;;;;;25.10;57.06;97193.22;5071501;28;20748;-27
2023/07/30 08:49:35;;;;;;;0.60;0.60;;;;;;;25.10;56.76;97182.06;5070379;28;20585;-27
2023/07/30 08:52:03;;;;;;;0.60;0.60;;;;;;;25.11;56.97;97184.66;5070254;28;20624;-29
2023/07/30 08:54:30;;;;;;;0.60;0.60;;;;;;;25.12;56.93;97182.94;5071439;28;20208;-29
2023/07/30 08:56:58;;;;;;;0.70;0.70;;;;;;;25.11;56.56;97183.81;5071626;28;20204;-27
2023/07/30 08:59:24;;;;;;;0.70;0.70;;;;;;;25.11;57.05;97182.06;5069626;28;20243;-27
2023/07/30 09:01:51;;;;;;;0.60;0.60;;;;;;;25.13;56.63;97183.81;5071627;28;20220;-27
2023/07/30 09:04:18;;;;;;;0.67;0.67;;;;;;;25.11;56.88;97186.38;5071295;28;20287;-29
2023/07/30 09:06:48;;;;;;;0.60;0.60;;;;;;;25.11;56.69;97178.66;5071387;28;20352;-27
2023/07/30 09:09:19;;;;;;;0.63;0.63;;;;;;;25.13;56.72;97186.41;5071049;28;20670;-28
2023/07/30 09:11:52;;;;;;;0.60;0.60;;;;;;;25.12;56.54;97175.22;5069875;28;20199;-28
2023/07/30 09:14:19;;;;;;;0.67;0.67;;;;;;;25.12;56.61;97180.38;5071674;28;20239;-28
2023/07/30 09:16:46;;;;;;;0.60;0.60;;;;;;;25.10;57.02;97167.50;5071144;28;20219;-29
2023/07/30 09:19:17;;;;;;;0.70;0.70;;;;;;;25.11;57.09;97161.50;5071091;28;20632;-28
2023/07/30 09:21:43;;;;;;;0.60;0.60;;;;;;;25.11;57.06;97168.38;5070811;28;20220;-27
2023/07/30 09:24:10;;;;;;;0.60;0.60;;;;;;;25.11;57.04;97164.06;5071213;28;20218;-31
2023/07/30 09:26:45;;;;;;;0.60;0.60;;;;;;;25.11;56.90;97171.78;5068098;28;20281;-29
2023/07/30 09:29:11;;;;;;;0.67;0.67;;;;;;;25.11;56.81;97158.94;5071126;28;20673;-28
2023/07/30 09:31:48;;;;;;;0.60;0.60;;;;;;;25.11;57.00;97158.94;5071004;28;20277;-27
2023/07/30 09:34:17;;;;;;;0.60;0.60;;;;;;;25.07;56.72;97159.75;5071110;28;20207;-29
2023/07/30 09:36:46;;;;;;;0.60;0.60;;;;;;;25.12;57.00;97170.09;5071183;28;20200;-30
2023/07/30 09:39:18;;;;;;;0.60;0.60;;;;;;;25.11;56.81;97174.38;5074910;28;20208;-27
2023/07/30 09:41:45;;;;;;;0.60;0.60;;;;;;;25.12;56.78;97167.53;5073593;28;20220;-27
2023/07/30 09:44:13;;;;;;;0.60;0.60;;;;;;;25.10;56.68;97167.50;5075461;28;20204;-27
2023/07/30 09:46:44;;;;;;;0.60;0.60;;;;;;;25.11;56.80;97164.06;5073641;28;20204;-29
2023/07/30 09:49:10;;;;;;;0.60;0.60;;;;;;;25.12;56.74;97167.53;5075043;28;20204;-28
2023/07/30 09:51:40;;;;;;;0.70;0.70;;;;;;;25.13;57.09;97173.53;5074408;28;20649;-27
2023/07/30 09:54:08;;;;;;;0.63;0.63;;;;;;;25.13;56.61;97176.09;5074848;28;20208;-28
2023/07/30 09:56:35;;;;;;;0.67;0.67;;;;;;;25.12;56.92;97177.81;5074978;28;20204;-28
2023/07/30 09:59:04;;;;;;;0.50;0.50;;;;;;;25.13;56.72;97173.53;5074709;28;20236;-30
2023/07/30 10:01:31;;;;;;;0.70;0.70;;;;;;;25.12;56.88;97175.22;5074121;28;20219;-27
2023/07/30 10:03:57;;;;;;;0.67;0.67;;;;;;;25.11;57.01;97170.94;5074439;28;20291;-27
2023/07/30 10:06:28;;;;;;;0.60;0.60;;;;;;;25.12;56.82;97180.38;5074524;28;20201;-31
2023/07/30 10:08:55;;;;;;;0.70;0.70;;;;;;;25.07;56.78;97182.03;5057016;28;20638;-27
2023/07/30 10:11:22;;;;;;;0.60;0.60;;;;;;;25.12;57.08;97190.66;5053414;28;20500;-27
2023/07/30 10:13:49;;;;;;;0.70;0.70;;;;;;;25.13;56.58;97188.97;5056610;28;20204;-30
2023/07/30 10:16:15;;;;;;;0.63;0.63;;;;;;;25.12;56.85;97190.66;5073050;28;20263;-29
2023/07/30 10:18:42;;;;;;;0.60;0.60;;;;;;;25.13;56.69;97181.25;5074117;28;20663;-27
2023/07/30 10:21:10;;;;;;;0.60;0.60;;;;;;;25.13;56.96;97181.25;5074357;28;20232;-28
2023/07/30 10:23:46;;;;;;;0.60;0.60;;;;;;;25.13;56.57;97183.81;5074171;28;20254;-32
2023/07/30 10:26:12;;;;;;;0.60;0.60;;;;;;;25.13;56.58;97178.69;5074056;28;20208;-27
2023/07/30 10:28:43;;;;;;;0.63;0.63;;;;;;;25.13;56.92;97174.38;5073915;28;20609;-35
2023/07/30 10:31:11;;;;;;;0.60;0.60;;;;;;;25.13;56.88;97170.97;5073791;28;20641;-28
2023/07/30 10:33:45;;;;;;;0.60;0.60;;;;;;;25.12;56.98;97185.53;5074037;28;20262;-28
2023/07/30 10:36:11;;;;;;;0.70;0.70;;;;;;;25.12;56.96;97203.53;5074106;28;20257;-29
2023/07/30 10:38:38;;;;;;;0.60;0.60;;;;;;;25.12;56.94;97206.09;5072761;28;20239;-27
2023/07/30 10:41:06;;;;;;;0.70;0.70;;;;;;;25.11;57.12;97215.50;5052651;28;20275;-28
2023/07/30 10:43:40;;;;;;;0.70;0.70;;;;;;;25.12;57.00;97216.38;5072810;28;20196;-30
2023/07/30 10:46:11;;;;;;;0.60;0.60;;;;;;;25.09;56.90;97203.50;5074072;28;20204;-28
2023/07/30 10:48:39;;;;;;;0.53;0.53;;;;;;;25.12;56.86;97200.94;5073280;28;20213;-29
2023/07/30 10:51:08;;;;;;;0.67;0.67;;;;;;;25.13;56.92;97201.81;5073778;28;20220;-28
2023/07/30 10:53:39;;;;;;;0.70;0.70;;;;;;;25.11;56.58;97204.38;5073526;28;20200;-35
2023/07/30 10:56:06;;;;;;;0.60;0.60;;;;;;;25.12;57.08;97193.22;5073672;28;20218;-27
2023/07/30 10:58:34;;;;;;;0.60;0.60;;;;;;;25.11;56.69;97194.94;5073709;28;20219;-27
2023/07/30 11:01:04;;;;;;;0.60;0.60;;;;;;;25.11;56.88;97199.25;5083382;22;20225;-28
2023/07/30 11:03:31;;;;;;;0.70;0.70;;;;;;;25.11;56.98;97209.53;5053759;28;20231;-27
2023/07/30 11:05:59;;;;;;;0.60;0.60;;;;;;;25.12;57.04;97213.81;5053429;28;20201;-27
2023/07/30 11:08:39;;;;;;;0.57;0.57;;;;;;;25.12;56.60;97216.38;5053889;28;20212;-27
2023/07/30 11:11:06;;;;;;;0.70;0.70;;;;;;;25.09;56.73;97214.66;5051826;28;20613;-27
2023/07/30 11:13:39;;;;;;;0.60;0.60;;;;;;;25.11;57.07;97219.81;5053467;28;20212;-28
2023/07/30 11:16:07;;;;;;;0.60;0.60;;;;;;;25.09;56.80;97224.94;5050449;28;20209;-27
2023/07/30 11:18:34;;;;;;;0.60;0.60;;;;;;;25.10;56.71;97216.38;5053696;28;20604;-27
2023/07/30 11:21:08;;;;;;;0.70;0.70;;;;;;;25.11;57.06;97230.09;5052910;28;20225;-27
2023/07/30 11:23:36;;;;;;;0.60;0.60;;;;;;;25.12;56.64;97229.25;5053196;28;20283;-28
2023/07/30 11:26:03;;;;;;;0.60;0.60;;;;;;;25.10;56.98;97223.22;5052033;28;20722;-27
2023/07/30 11:28:33;;;;;;;0.67;0.67;;;;;;;25.11;56.59;97236.09;5053367;28;20300;-28
2023/07/30 11:31:13;;;;;;;0.60;0.60;;;;;;;25.12;57.00;97234.38;5048336;28;20221;-27
2023/07/30 11:33:42;;;;;;;0.60;0.60;;;;;;;25.08;56.61;97223.19;5053018;28;20204;-27